Latest Weather Observations for Moranbah Airport

IDQ60801

Issued at 7:32 pm EST Thursday 2 July 2015 (issued every 30 minutes, with the page automatically refreshed every 10 minutes)

About weather observations | Map of weather stations | Latest weather observations for QLD | Other Formats
Station Details ID: 034035 Name: MORANBAH AIRPORT Lat: -22.06 Lon: 148.08 Height: 232.2 m
Data from the previous 72 hours. | See also: Recent months at Moranbah Airport
Date/Time
EST
Temp
°C
App
Temp
°C
Dew
Point
Rel
Hum
%
Delta-T
°C
Wind Press
QNH
hPa
Press
MSL
hPa
Rain
since 9 am
mm
Dir
 
Spd
km/h
Gust
km/h
Spd
kts
Gust
kts
02/07:30pm 17.7 14.0 6.3 47 5.7 SSE 15 17 8 9 1020.3 1020.0 0.0
02/07:00pm 18.4 15.5 6.3 45 6.0 SSE 11 13 6 7 1019.8 1019.5 0.0
02/06:30pm 19.4 17.1 5.5 40 6.9 SSE 7 11 4 6 1019.6 1019.3 0.0
02/06:00pm 20.1 17.6 4.6 36 7.6 SSW 7 9 4 5 1019.3 1019.0 0.0
02/05:30pm 22.9 20.0 4.9 31 9.0 SSW 9 17 5 9 1018.9 1018.6 0.0
02/05:00pm 24.6 21.7 4.9 28 10.0 SSW 9 17 5 9 1018.7 1018.3 0.0
02/04:30pm 25.2 21.6 4.9 27 10.3 SSW 13 20 7 11 1018.5 1018.1 0.0
02/04:00pm 25.4 21.4 5.1 27 10.4 SW 15 20 8 11 1018.4 1018.0 0.0
02/03:30pm 25.8 22.5 4.3 25 10.9 SSE 11 17 6 9 1018.4 1018.0 0.0
02/03:00pm 25.3 21.8 5.5 28 10.2 S 13 22 7 12 1018.5 1018.1 0.0
02/02:30pm 25.1 22.3 6.8 31 9.6 S 11 19 6 10 1018.8 1018.4 0.0
02/02:00pm 25.4 21.4 6.6 30 9.9 SSW 17 26 9 14 1019.2 1018.9 0.0
02/01:30pm 24.3 21.4 8.3 36 8.6 SE 13 24 7 13 1019.5 1019.2 0.0
02/01:00pm 23.9 20.9 9.1 39 8.1 S 15 28 8 15 1020.2 1019.9 0.0
02/12:30pm 23.0 20.3 9.0 41 7.6 SSE 13 20 7 11 1020.8 1020.5 0.0
02/12:00pm 21.8 18.8 9.3 45 6.7 SSE 15 22 8 12 1021.6 1021.2 0.0
02/11:30am 21.3 18.0 9.5 47 6.4 SSE 17 24 9 13 1022.2 1021.8 0.0
02/11:00am 20.7 17.4 9.6 49 6.0 SE 17 22 9 12 1022.7 1022.4 0.0
02/10:30am 20.1 16.5 9.9 52 5.5 SE 19 26 10 14 1023.4 1023.1 0.0
02/10:00am 18.7 14.4 9.5 55 4.9 ESE 22 28 12 15 1023.7 1023.4 0.0
02/09:30am 18.3 14.1 9.6 57 4.6 SE 22 28 12 15 1024.1 1023.8 0.0
02/09:00am 17.3 12.7 9.5 60 4.1 SE 24 30 13 16 1024.1 1023.8 0.0
02/08:30am 16.5 12.3 9.7 64 3.6 SE 22 28 12 15 1023.9 1023.6 0.0
02/08:00am 14.8 12.7 9.6 71 2.7 ESE 11 15 6 8 1023.9 1023.6 0.0
02/07:30am 13.3 12.0 9.9 80 1.8 ESE 7 9 4 5 1023.6 1023.3 0.0
02/07:00am 11.7 10.0 8.4 80 1.6 ESE 7 9 4 5 1023.3 1023.0 0.0
02/06:30am 12.4 9.7 8.9 79 1.8 SE 13 17 7 9 1022.7 1022.4 0.0
02/06:00am 13.1 9.7 9.0 76 2.1 SE 17 22 9 12 1022.2 1021.8 0.0
02/05:30am 13.7 10.0 9.6 76 2.1 SE 19 22 10 12 1021.9 1021.5 0.0
02/05:00am 14.2 10.6 9.8 75 2.3 SE 19 24 10 13 1021.7 1021.3 0.0
02/04:30am 14.3 11.4 9.5 73 2.5 SE 15 20 8 11 1021.8 1021.4 0.0
02/04:00am 15.1 11.3 9.7 70 2.8 SSE 20 24 11 13 1021.8 1021.4 0.0
02/03:30am 15.2 11.4 9.8 70 2.8 SSE 20 24 11 13 1021.9 1021.5 0.0
02/03:00am 15.5 11.6 9.4 67 3.2 SE 20 26 11 14 1021.8 1021.4 0.0
02/02:30am 15.9 12.0 9.6 66 3.3 SE 20 26 11 14 1021.7 1021.3 0.0
02/02:00am 15.6 11.7 9.5 67 3.2 SE 20 24 11 13 1021.9 1021.5 0.0
02/01:30am 14.6 11.5 8.8 68 3.0 SE 15 19 8 10 1022.0 1021.6 0.0
02/01:00am 13.8 10.3 8.8 72 2.5 SE 17 20 9 11 1022.0 1021.6 0.0
02/12:30am 12.7 10.8 7.4 70 2.6 ESE 7 9 4 5 1022.0 1021.6 0.0
02/12:00am 13.6 11.7 7.6 67 3.0 S 7 9 4 5 1022.2 1021.8 0.0
 
Date/Time
EST
Temp
°C
App
Temp
°C
Dew
Point
Rel
Hum
%
Delta-T
°C
Wind Press
QNH
hPa
Press
MSL
hPa
Rain
since 9 am
mm
Dir
 
Spd
km/h
Gust
km/h
Spd
kts
Gust
kts
01/11:30pm 14.6 12.8 8.1 65 3.3 SSE 7 9 4 5 1022.5 1022.1 0.0
01/11:00pm 15.4 13.3 8.2 62 3.7 SSE 9 13 5 7 1022.7 1022.4 0.0
01/10:30pm 15.6 15.2 8.4 62 3.7 CALM 0 6 0 3 1022.8 1022.5 0.0
01/10:00pm 16.2 13.9 7.4 56 4.4 S 9 11 5 6 1022.6 1022.3 0.0
01/09:30pm 17.1 14.2 8.3 56 4.5 SSE 13 15 7 8 1022.6 1022.3 0.0
01/09:00pm 18.7 15.6 8.9 53 5.2 SSE 15 15 8 8 1022.4 1022.0 0.0
01/08:30pm 18.9 15.7 8.6 51 5.4 S 15 15 8 8 1022.2 1021.8 0.0
01/08:00pm 20.0 16.9 9.0 49 5.8 S 15 17 8 9 1022.0 1021.6 0.0
01/07:30pm 20.4 17.8 9.3 49 6.0 S 13 15 7 8 1021.8 1021.4 0.0
01/07:00pm 19.4 16.7 9.0 51 5.5 SE 13 15 7 8 1021.4 1021.0 0.0
01/06:30pm 19.2 16.2 7.9 48 5.9 SE 13 15 7 8 1020.9 1020.6 0.0
01/06:00pm 21.8 18.9 8.3 42 7.2 ESE 13 15 7 8 1020.7 1020.4 0.0
01/05:30pm 22.3 19.3 7.7 39 7.7 SE 13 20 7 11 1020.5 1020.2 0.0
01/05:00pm 24.7 21.1 8.2 35 8.9 SE 17 22 9 12 1020.2 1019.9 0.0
01/04:30pm 25.4 21.8 8.4 34 9.2 SE 17 24 9 13 1020.1 1019.8 0.0
01/04:00pm 25.9 22.8 8.8 34 9.4 SSE 15 24 8 13 1019.9 1019.6 0.0
01/03:30pm 26.2 22.5 9.5 35 9.3 SE 19 26 10 14 1020.1 1019.8 0.0
01/03:00pm 26.4 22.5 9.3 34 9.5 SE 20 30 11 16 1020.1 1019.8 0.0
01/02:30pm 25.8 22.0 9.2 35 9.2 SE 19 26 10 14 1020.3 1020.0 0.0
01/02:00pm 25.0 21.4 10.5 40 8.1 SE 20 30 11 16 1020.7 1020.4 0.0
01/01:30pm 24.5 21.3 10.0 40 8.1 SE 17 26 9 14 1021.1 1020.8 0.0
01/01:00pm 25.5 22.2 10.9 40 8.3 ESE 19 26 10 14 1021.7 1021.3 0.0
01/12:30pm 25.6 22.5 11.7 42 8.0 ESE 19 28 10 15 1022.4 1022.0 0.0
01/12:00pm 24.8 21.8 12.7 47 7.0 SE 20 28 11 15 1023.1 1022.8 0.0
01/11:30am 23.5 19.5 11.9 48 6.6 SE 24 32 13 17 1023.6 1023.3 0.0
01/11:00am 23.2 20.0 13.1 53 5.9 ESE 22 30 12 16 1024.1 1023.8 0.0
01/10:30am 22.3 19.4 13.9 59 4.9 ESE 22 32 12 17 1024.2 1023.9 0.0
01/10:00am 21.5 18.9 13.9 62 4.4 ESE 20 30 11 16 1024.5 1024.2 0.0
01/09:30am 20.5 17.5 13.7 65 4.0 SE 22 30 12 16 1024.8 1024.4 0.0
01/09:00am 20.0 16.7 13.9 68 3.5 SE 24 32 13 17 1024.7 1024.3 0.0
01/08:30am 18.6 16.1 13.5 72 2.9 SE 19 24 10 13 1024.5 1024.1 0.0
01/08:00am 16.6 15.3 13.7 83 1.6 ESE 13 20 7 11 1024.4 1024.0 0.0
01/07:30am 12.9 13.1 11.8 93 0.6 SE 2 6 1 3 1024.1 1023.7 0.0
01/07:00am 11.8 10.9 10.7 93 0.6 E 6 7 3 4 1023.9 1023.5 0.0
01/06:30am 12.1 10.7 10.8 92 0.7 SE 9 11 5 6 1023.7 1023.3 0.0
01/06:00am 12.3 10.8 10.5 89 0.9 SE 9 11 5 6 1023.3 1022.9 0.0
01/05:30am 13.4 12.2 11.6 89 1.0 SSE 9 9 5 5 1023.2 1022.8 0.0
01/05:00am 14.3 12.5 12.2 87 1.1 SSE 13 13 7 7 1023.1 1022.7 0.0
01/04:30am 14.5 12.7 12.2 86 1.3 S 13 15 7 8 1023.1 1022.7 0.0
01/04:00am 14.7 13.4 12.6 87 1.2 S 11 13 6 7 1023.0 1022.6 0.0
01/03:30am 14.8 13.4 12.3 85 1.4 SSE 11 13 6 7 1022.9 1022.5 0.0
01/03:00am 15.9 14.0 13.0 83 1.6 SSE 15 17 8 9 1023.0 1022.6 0.0
01/02:30am 15.9 14.2 12.6 81 1.8 SSE 13 15 7 8 1023.2 1022.8 0.0
01/02:00am 16.7 15.2 13.0 79 2.1 SSE 13 15 7 8 1023.1 1022.7 0.0
01/01:30am 16.9 15.4 13.0 78 2.2 SE 13 15 7 8 1023.4 1023.0 0.0
01/01:00am 16.4 14.6 12.0 75 2.4 SSE 13 13 7 7 1023.6 1023.2 0.0
01/12:30am 17.1 16.1 12.4 74 2.6 SE 9 11 5 6 1023.6 1023.2 0.0
01/12:00am 17.4 15.9 11.9 70 3.0 SE 11 11 6 6 1023.5 1023.1 0.0
 
Date/Time
EST
Temp
°C
App
Temp
°C
Dew
Point
Rel
Hum
%
Delta-T
°C
Wind Press
QNH
hPa
Press
MSL
hPa
Rain
since 9 am
mm
Dir
 
Spd
km/h
Gust
km/h
Spd
kts
Gust
kts
30/11:30pm 18.3 17.2 12.1 67 3.5 SE 9 11 5 6 1023.7 1023.3 0.0
30/11:00pm 18.7 17.3 12.2 66 3.6 ESE 11 15 6 8 1023.6 1023.2 0.0
30/10:30pm 19.4 18.4 12.2 63 4.1 ESE 9 11 5 6 1023.8 1023.4 0.0
30/10:00pm 19.6 17.9 12.4 63 4.1 ESE 13 13 7 7 1023.8 1023.4 0.0
30/09:30pm 19.7 18.7 12.2 62 4.2 ESE 9 11 5 6 1024.1 1023.7 0.0
30/09:00pm 20.2 19.5 11.9 59 4.6 ESE 7 9 4 5 1024.1 1023.7 0.0
30/08:30pm 21.1 19.7 12.3 57 5.0 ESE 11 20 6 11 1023.7 1023.3 0.0
30/08:00pm 21.2 20.4 12.9 59 4.8 SSE 9 13 5 7 1023.6 1023.2 0.0
30/07:30pm 20.8 21.7 13.0 61 4.5 CALM 0 4 0 2 1023.4 1023.0 0.0
30/07:00pm 21.5 20.6 13.7 61 4.5 NE 11 15 6 8 1022.9 1022.5 0.0
30/06:30pm 20.8 19.8 12.2 58 4.9 SSE 9 11 5 6 1022.6 1022.2 0.0
30/06:00pm 21.8 20.5 12.4 55 5.4 SSE 11 15 6 8 1022.4 1022.0 0.0
30/05:30pm 22.3 21.3 12.3 53 5.7 SE 9 13 5 7 1022.3 1021.9 0.0
30/05:00pm 22.9 21.2 12.5 52 6.0 SE 13 17 7 9 1022.1 1021.7 0.0
30/04:30pm 23.2 20.8 12.5 51 6.2 ESE 17 24 9 13 1021.9 1021.5 0.0
30/04:00pm 23.5 21.2 13.1 52 6.0 ESE 17 22 9 12 1021.9 1021.5 0.0
30/03:30pm 23.5 21.3 13.4 53 5.9 ESE 17 22 9 12 1022.0 1021.6 0.0
30/03:00pm 23.0 20.9 13.5 55 5.5 E 17 22 9 12 1022.1 1021.7 0.0
30/02:30pm 23.7 21.3 13.8 53 5.8 ESE 19 28 10 15 1022.2 1021.8 0.0
30/02:00pm 22.7 21.1 14.0 58 5.1 ESE 15 22 8 12 1022.4 1022.0 0.0
30/01:30pm 22.1 19.8 14.2 61 4.7 ESE 19 28 10 15 1022.7 1022.3 0.0
30/01:00pm 22.3 19.8 14.2 60 4.8 ESE 20 28 11 15 1023.1 1022.7 0.0
30/12:30pm 21.2 18.7 13.6 62 4.4 ESE 19 24 10 13 1023.5 1023.1 0.0
30/12:00pm 22.5 20.4 14.6 61 4.7 ESE 19 26 10 14 1024.0 1023.6 0.0
30/11:30am 20.7 18.9 14.4 67 3.7 ESE 17 24 9 13 1024.5 1024.1 0.0
30/11:00am 20.1 18.2 15.1 73 3.0 ESE 19 26 10 14 1024.9 1024.5 0.0
30/10:30am 19.9 17.1 15.3 75 2.7 SE 24 32 13 17 1025.2 1024.8 0.0
30/10:13am 18.8 17.4 16.6 87 1.3 ESE 19 24 10 13 1025.3 1024.9 0.0
30/10:00am 17.7 15.6 16.2 91 0.9 ESE 22 32 12 17 1025.2 1024.8 0.0
30/09:32am 17.7 14.8 15.0 84 1.6 SE 24 30 13 16 1025.4 1025.0 0.0
30/09:30am 17.9 15.0 15.2 84 1.6 SE 24 30 13 16 1025.3 1024.9 0.0
30/09:02am 17.3 15.0 15.6 90 1.0 SE 22 30 12 16 1025.0 1024.6 0.0
30/09:00am 17.1 14.7 15.4 90 1.0 SE 22 30 12 16 1025.0 1024.6 0.0
30/08:51am 17.1 15.2 15.8 92 0.8 SE 20 26 11 14 1025.0 1024.6 0.0
30/08:30am 16.9 14.9 15.4 91 0.9 SE 20 26 11 14 1025.1 1024.7 0.0
30/08:28am 17.0 15.0 15.5 91 0.9 SE 20 26 11 14 1025.1 1024.7 0.0
30/08:00am 17.0 14.1 15.0 88 1.2 SE 24 32 13 17 1024.8 1024.4 0.0
30/07:30am 16.8 14.7 15.2 90 0.9 SE 20 28 11 15 1024.3 1023.9 0.0
30/07:00am 16.3 13.7 15.0 92 0.8 SE 22 30 12 16 1023.9 1023.5 0.0
30/06:47am 16.5 13.9 14.9 90 0.9 SE 22 30 12 16 1023.9 1023.5 0.0
30/06:46am 16.5 13.9 14.9 90 0.9 SE 22 30 12 16 1023.9 1023.5 0.0
30/06:33am 16.6 13.9 14.6 88 1.2 SE 22 30 12 16 1023.7 1023.3 0.0
30/06:30am 16.7 13.7 14.7 88 1.2 SE 24 30 13 16 1023.7 1023.3 0.0
30/06:00am 16.7 14.0 14.5 87 1.3 SSE 22 30 12 16 1023.6 1023.2 0.0
30/05:30am 16.9 14.6 14.7 87 1.3 SE 20 26 11 14 1023.0 1022.6 0.0
30/05:00am 16.8 14.7 14.8 88 1.2 SE 19 26 10 14 1023.0 1022.6 0.0
30/04:30am 16.8 14.7 14.8 88 1.2 SE 19 24 10 13 1022.8 1022.4 0.0
30/04:00am 16.8 14.7 14.8 88 1.2 SE 19 26 10 14 1023.0 1022.6 0.0
30/03:30am 16.8 14.6 15.0 89 1.1 SE 20 28 11 15 1022.9 1022.5 0.0
30/03:00am 16.4 14.5 15.1 92 0.8 SE 19 24 10 13 1022.9 1022.5 0.0
30/02:30am 15.7 14.0 14.6 93 0.6 SE 17 26 9 14 1022.8 1022.4 0.0
30/02:00am 15.7 13.9 14.4 92 0.7 SE 17 20 9 11 1023.1 1022.7 0.0
30/01:30am 16.3 14.2 14.7 90 0.9 SE 19 24 10 13 1023.2 1022.8 0.0
30/01:00am 16.5 14.3 14.5 88 1.2 SE 19 22 10 12 1023.5 1023.1 0.0
30/12:30am 17.0 15.3 14.6 86 1.4 SE 17 20 9 11 1023.5 1023.1 0.0
30/12:00am 17.4 15.8 14.9 85 1.5 SE 17 22 9 12 1023.8 1023.4 0.0
 
Date/Time
EST
Temp
°C
App
Temp
°C
Dew
Point
Rel
Hum
%
Delta-T
°C
Wind Press
QNH
hPa
Press
MSL
hPa
Rain
since 9 am
mm
Dir
 
Spd
km/h
Gust
km/h
Spd
kts
Gust
kts
29/11:30pm 17.7 15.5 15.0 84 1.6 ESE 20 26 11 14 1023.7 1023.3 0.0
29/11:00pm 17.7 15.8 15.1 85 1.5 SE 19 28 10 15 1024.3 1023.9 0.0
29/10:30pm 18.0 15.9 15.3 84 1.6 SE 20 24 11 13 1024.5 1024.1 0.0
29/10:00pm 18.2 16.4 15.5 84 1.6 SE 19 26 10 14 1024.7 1024.3 0.0
29/09:30pm 18.3 16.2 14.6 79 2.2 SE 19 24 10 13 1024.4 1024.0 0.0
29/09:00pm 19.2 16.8 13.8 71 3.1 ESE 19 24 10 13 1024.3 1023.9 0.0
29/08:30pm 19.9 16.9 12.4 62 4.2 ESE 20 26 11 14 1024.3 1023.9 0.0
29/08:00pm 20.4 17.2 11.9 58 4.8 E 20 32 11 17 1024.2 1023.8 0.0

Other Formats:

Comma delimited format used in spreadsheet applications
http://www.bom.gov.au/fwo/IDQ60801/IDQ60801.94397.axf

JavaScript Object Notation format (JSON) in row-major order
http://www.bom.gov.au/fwo/IDQ60801/IDQ60801.94397.json